sensor_id;sensor_type;location;lat;lon;timestamp;temperature;humidity
423;DHT22;198;48.752;9.180;2022-10-19T00:00:14;15.40;99.90
423;DHT22;198;48.752;9.180;2022-10-19T00:02:40;15.40;99.90
423;DHT22;198;48.752;9.180;2022-10-19T00:05:05;15.30;99.90
423;DHT22;198;48.752;9.180;2022-10-19T00:07:32;15.30;99.90
423;DHT22;198;48.752;9.180;2022-10-19T00:09:58;15.30;99.90
423;DHT22;198;48.752;9.180;2022-10-19T00:12:23;15.20;99.90
423;DHT22;198;48.752;9.180;2022-10-19T00:14:49;15.10;99.90
423;DHT22;198;48.752;9.180;2022-10-19T00:17:14;15.20;99.90
423;DHT22;198;48.752;9.180;2022-10-19T00:19:40;15.10;99.90
423;DHT22;198;48.752;9.180;2022-10-19T00:22:05;15.10;99.90
423;DHT22;198;48.752;9.180;2022-10-19T00:24:31;15.10;99.90
423;DHT22;198;48.752;9.180;2022-10-19T00:26:57;15.10;99.90
423;DHT22;198;48.752;9.180;2022-10-19T00:29:22;15.00;99.90
423;DHT22;198;48.752;9.180;2022-10-19T00:31:49;15.00;99.90
423;DHT22;198;48.752;9.180;2022-10-19T00:34:15;15.00;99.90
423;DHT22;198;48.752;9.180;2022-10-19T00:36:40;14.90;99.90
423;DHT22;198;48.752;9.180;2022-10-19T00:39:09;14.90;99.90
423;DHT22;198;48.752;9.180;2022-10-19T00:41:36;14.90;99.90
423;DHT22;198;48.752;9.180;2022-10-19T00:44:05;14.90;99.90
423;DHT22;198;48.752;9.180;2022-10-19T00:46:34;14.90;99.90
423;DHT22;198;48.752;9.180;2022-10-19T00:49:04;14.90;99.90
423;DHT22;198;48.752;9.180;2022-10-19T00:51:31;14.80;99.90
423;DHT22;198;48.752;9.180;2022-10-19T00:53:57;14.80;99.90
423;DHT22;198;48.752;9.180;2022-10-19T00:56:25;14.80;99.90
423;DHT22;198;48.752;9.180;2022-10-19T00:58:50;14.80;99.90
423;DHT22;198;48.752;9.180;2022-10-19T01:01:18;14.80;99.90
423;DHT22;198;48.752;9.180;2022-10-19T01:03:45;14.80;99.90
423;DHT22;198;48.752;9.180;2022-10-19T01:06:13;14.90;99.90
423;DHT22;198;48.752;9.180;2022-10-19T01:08:39;14.90;99.90
423;DHT22;198;48.752;9.180;2022-10-19T01:26:07;15.20;99.90
423;DHT22;198;48.752;9.180;2022-10-19T01:29:15;15.30;99.90
423;DHT22;198;48.752;9.180;2022-10-19T01:31:49;15.40;99.90
423;DHT22;198;48.752;9.180;2022-10-19T01:34:43;15.50;99.90
423;DHT22;198;48.752;9.180;2022-10-19T01:37:16;15.60;99.90
423;DHT22;198;48.752;9.180;2022-10-19T01:39:53;15.70;99.90
423;DHT22;198;48.752;9.180;2022-10-19T01:42:33;15.80;99.90
423;DHT22;198;48.752;9.180;2022-10-19T01:45:07;15.80;99.90
423;DHT22;198;48.752;9.180;2022-10-19T01:47:38;15.90;99.90
423;DHT22;198;48.752;9.180;2022-10-19T01:50:12;15.90;99.90
423;DHT22;198;48.752;9.180;2022-10-19T01:52:40;15.90;99.90
423;DHT22;198;48.752;9.180;2022-10-19T01:55:08;15.90;99.90
423;DHT22;198;48.752;9.180;2022-10-19T01:57:47;15.90;99.90
423;DHT22;198;48.752;9.180;2022-10-19T02:00:15;16.00;99.90
423;DHT22;198;48.752;9.180;2022-10-19T02:02:43;16.00;99.90
423;DHT22;198;48.752;9.180;2022-10-19T02:05:11;16.00;99.90
423;DHT22;198;48.752;9.180;2022-10-19T02:07:39;16.00;99.90
423;DHT22;198;48.752;9.180;2022-10-19T02:10:06;16.00;99.90
423;DHT22;198;48.752;9.180;2022-10-19T02:12:32;16.00;99.90
423;DHT22;198;48.752;9.180;2022-10-19T02:15:08;16.10;99.90
423;DHT22;198;48.752;9.180;2022-10-19T02:17:39;16.10;99.90
423;DHT22;198;48.752;9.180;2022-10-19T02:20:06;16.10;99.90
423;DHT22;198;48.752;9.180;2022-10-19T02:22:32;16.10;99.90
423;DHT22;198;48.752;9.180;2022-10-19T02:24:58;16.10;99.90
423;DHT22;198;48.752;9.180;2022-10-19T02:27:24;16.10;99.90
423;DHT22;198;48.752;9.180;2022-10-19T02:29:50;16.10;99.90
423;DHT22;198;48.752;9.180;2022-10-19T02:32:16;16.20;99.90
423;DHT22;198;48.752;9.180;2022-10-19T02:34:42;16.20;99.90
423;DHT22;198;48.752;9.180;2022-10-19T02:37:07;16.20;99.90
423;DHT22;198;48.752;9.180;2022-10-19T02:39:33;16.20;99.90
423;DHT22;198;48.752;9.180;2022-10-19T02:42:09;16.30;99.90
423;DHT22;198;48.752;9.180;2022-10-19T02:47:34;16.30;99.90
423;DHT22;198;48.752;9.180;2022-10-19T02:50:03;16.30;99.90
423;DHT22;198;48.752;9.180;2022-10-19T02:52:29;16.30;99.90
423;DHT22;198;48.752;9.180;2022-10-19T02:54:54;16.30;99.90
423;DHT22;198;48.752;9.180;2022-10-19T02:57:23;16.40;99.90
423;DHT22;198;48.752;9.180;2022-10-19T02:59:50;16.40;99.90
423;DHT22;198;48.752;9.180;2022-10-19T03:02:16;16.40;99.90
423;DHT22;198;48.752;9.180;2022-10-19T03:04:43;16.30;99.90
423;DHT22;198;48.752;9.180;2022-10-19T03:07:14;16.30;99.90
423;DHT22;198;48.752;9.180;2022-10-19T03:09:40;16.30;99.90
423;DHT22;198;48.752;9.180;2022-10-19T03:12:06;16.20;99.90
423;DHT22;198;48.752;9.180;2022-10-19T03:14:32;16.30;99.90
423;DHT22;198;48.752;9.180;2022-10-19T03:16:57;16.20;99.90
423;DHT22;198;48.752;9.180;2022-10-19T03:19:23;16.20;99.90
423;DHT22;198;48.752;9.180;2022-10-19T03:21:48;16.20;99.90
423;DHT22;198;48.752;9.180;2022-10-19T03:24:15;16.20;99.90
423;DHT22;198;48.752;9.180;2022-10-19T03:26:40;16.10;99.90
423;DHT22;198;48.752;9.180;2022-10-19T03:29:06;16.20;99.90
423;DHT22;198;48.752;9.180;2022-10-19T03:31:31;16.10;99.90
423;DHT22;198;48.752;9.180;2022-10-19T03:33:57;16.10;99.90
423;DHT22;198;48.752;9.180;2022-10-19T03:36:27;16.10;99.90
423;DHT22;198;48.752;9.180;2022-10-19T03:38:57;16.10;99.90
423;DHT22;198;48.752;9.180;2022-10-19T03:41:26;16.10;99.90
423;DHT22;198;48.752;9.180;2022-10-19T03:43:52;16.20;99.90
423;DHT22;198;48.752;9.180;2022-10-19T03:46:18;16.10;99.90
423;DHT22;198;48.752;9.180;2022-10-19T03:48:44;16.10;99.90
423;DHT22;198;48.752;9.180;2022-10-19T03:51:12;16.10;99.90
423;DHT22;198;48.752;9.180;2022-10-19T03:53:38;16.10;99.90
423;DHT22;198;48.752;9.180;2022-10-19T03:56:14;16.20;99.90
423;DHT22;198;48.752;9.180;2022-10-19T03:58:41;16.20;99.90
423;DHT22;198;48.752;9.180;2022-10-19T04:01:11;16.10;99.90
423;DHT22;198;48.752;9.180;2022-10-19T04:03:37;16.10;99.90
423;DHT22;198;48.752;9.180;2022-10-19T04:06:05;16.20;99.90
423;DHT22;198;48.752;9.180;2022-10-19T04:08:31;16.20;99.90
423;DHT22;198;48.752;9.180;2022-10-19T04:11:09;16.10;99.90
423;DHT22;198;48.752;9.180;2022-10-19T04:13:35;16.10;99.90
423;DHT22;198;48.752;9.180;2022-10-19T04:16:01;16.10;99.90
423;DHT22;198;48.752;9.180;2022-10-19T04:18:26;16.10;99.90
423;DHT22;198;48.752;9.180;2022-10-19T04:21:00;16.10;99.90
423;DHT22;198;48.752;9.180;2022-10-19T04:23:28;16.00;99.90
423;DHT22;198;48.752;9.180;2022-10-19T04:26:01;16.00;99.90
423;DHT22;198;48.752;9.180;2022-10-19T04:28:27;16.00;99.90
423;DHT22;198;48.752;9.180;2022-10-19T04:30:53;16.00;99.90
423;DHT22;198;48.752;9.180;2022-10-19T04:33:18;16.00;99.90
423;DHT22;198;48.752;9.180;2022-10-19T04:35:44;16.00;99.90
423;DHT22;198;48.752;9.180;2022-10-19T04:38:09;16.00;99.90
423;DHT22;198;48.752;9.180;2022-10-19T04:40:35;15.90;99.90
423;DHT22;198;48.752;9.180;2022-10-19T04:43:01;15.90;99.90
423;DHT22;198;48.752;9.180;2022-10-19T04:45:27;15.90;99.90
423;DHT22;198;48.752;9.180;2022-10-19T04:47:53;15.90;99.90
423;DHT22;198;48.752;9.180;2022-10-19T04:50:21;15.90;99.90
423;DHT22;198;48.752;9.180;2022-10-19T04:52:47;15.90;99.90
423;DHT22;198;48.752;9.180;2022-10-19T04:55:12;15.80;99.90
423;DHT22;198;48.752;9.180;2022-10-19T04:57:38;15.80;99.90
423;DHT22;198;48.752;9.180;2022-10-19T05:00:04;15.80;99.90
423;DHT22;198;48.752;9.180;2022-10-19T05:02:30;15.80;99.90
423;DHT22;198;48.752;9.180;2022-10-19T05:04:55;15.70;99.90
423;DHT22;198;48.752;9.180;2022-10-19T05:07:21;15.70;99.90
423;DHT22;198;48.752;9.180;2022-10-19T05:09:46;15.80;99.90
423;DHT22;198;48.752;9.180;2022-10-19T05:12:12;15.80;99.90
423;DHT22;198;48.752;9.180;2022-10-19T05:14:37;15.80;99.90
423;DHT22;198;48.752;9.180;2022-10-19T05:17:03;15.80;99.90
423;DHT22;198;48.752;9.180;2022-10-19T05:19:28;15.80;99.90
423;DHT22;198;48.752;9.180;2022-10-19T05:21:54;15.80;99.90
423;DHT22;198;48.752;9.180;2022-10-19T05:24:19;15.80;99.90
423;DHT22;198;48.752;9.180;2022-10-19T05:26:45;15.80;99.90
423;DHT22;198;48.752;9.180;2022-10-19T05:29:11;15.70;99.90
423;DHT22;198;48.752;9.180;2022-10-19T05:31:37;15.70;99.90
423;DHT22;198;48.752;9.180;2022-10-19T05:34:03;15.60;99.90
423;DHT22;198;48.752;9.180;2022-10-19T05:36:33;15.60;99.90
423;DHT22;198;48.752;9.180;2022-10-19T05:39:11;15.60;99.90
423;DHT22;198;48.752;9.180;2022-10-19T05:41:37;15.60;99.90
423;DHT22;198;48.752;9.180;2022-10-19T05:44:04;15.60;99.90
423;DHT22;198;48.752;9.180;2022-10-19T05:46:31;15.70;99.90
423;DHT22;198;48.752;9.180;2022-10-19T05:48:57;15.70;99.90
423;DHT22;198;48.752;9.180;2022-10-19T05:51:24;15.60;99.90
423;DHT22;198;48.752;9.180;2022-10-19T05:53:52;15.60;99.90
423;DHT22;198;48.752;9.180;2022-10-19T05:56:22;15.60;99.90
423;DHT22;198;48.752;9.180;2022-10-19T05:58:48;15.60;99.90
423;DHT22;198;48.752;9.180;2022-10-19T06:01:14;15.60;99.90
423;DHT22;198;48.752;9.180;2022-10-19T06:03:40;15.60;99.90
423;DHT22;198;48.752;9.180;2022-10-19T06:06:07;15.60;99.90
423;DHT22;198;48.752;9.180;2022-10-19T06:08:33;15.50;99.90
423;DHT22;198;48.752;9.180;2022-10-19T06:11:09;15.60;99.90
423;DHT22;198;48.752;9.180;2022-10-19T06:13:35;15.60;99.90
423;DHT22;198;48.752;9.180;2022-10-19T06:16:01;15.60;99.90
423;DHT22;198;48.752;9.180;2022-10-19T06:18:26;15.60;99.90
423;DHT22;198;48.752;9.180;2022-10-19T06:20:52;15.60;99.90
423;DHT22;198;48.752;9.180;2022-10-19T06:23:18;15.60;99.90
423;DHT22;198;48.752;9.180;2022-10-19T06:25:43;15.70;99.90
423;DHT22;198;48.752;9.180;2022-10-19T06:28:09;15.70;99.90
423;DHT22;198;48.752;9.180;2022-10-19T06:30:40;15.80;99.90
423;DHT22;198;48.752;9.180;2022-10-19T06:33:06;15.90;99.90
423;DHT22;198;48.752;9.180;2022-10-19T06:35:32;15.90;99.90
423;DHT22;198;48.752;9.180;2022-10-19T06:37:58;15.90;99.90
423;DHT22;198;48.752;9.180;2022-10-19T06:40:24;15.80;99.90
423;DHT22;198;48.752;9.180;2022-10-19T06:42:50;15.90;99.90
423;DHT22;198;48.752;9.180;2022-10-19T06:45:16;15.90;99.90
423;DHT22;198;48.752;9.180;2022-10-19T06:47:42;16.00;99.90
423;DHT22;198;48.752;9.180;2022-10-19T06:50:08;16.00;99.90
423;DHT22;198;48.752;9.180;2022-10-19T06:52:34;16.10;99.90
423;DHT22;198;48.752;9.180;2022-10-19T06:55:00;16.00;99.90
423;DHT22;198;48.752;9.180;2022-10-19T06:57:26;16.00;99.90
423;DHT22;198;48.752;9.180;2022-10-19T06:59:53;16.00;99.90
423;DHT22;198;48.752;9.180;2022-10-19T07:02:19;16.00;99.90
423;DHT22;198;48.752;9.180;2022-10-19T07:04:44;16.00;99.90
423;DHT22;198;48.752;9.180;2022-10-19T07:07:10;16.10;99.90
423;DHT22;198;48.752;9.180;2022-10-19T07:09:35;16.10;99.90
423;DHT22;198;48.752;9.180;2022-10-19T07:12:01;16.10;99.90
423;DHT22;198;48.752;9.180;2022-10-19T07:14:26;16.10;99.90
423;DHT22;198;48.752;9.180;2022-10-19T07:16:56;16.10;99.90
423;DHT22;198;48.752;9.180;2022-10-19T07:19:25;16.10;99.90
423;DHT22;198;48.752;9.180;2022-10-19T07:21:51;16.20;99.90
423;DHT22;198;48.752;9.180;2022-10-19T07:24:17;16.20;99.90
423;DHT22;198;48.752;9.180;2022-10-19T07:26:42;16.10;99.90
423;DHT22;198;48.752;9.180;2022-10-19T07:29:08;16.20;99.90
423;DHT22;198;48.752;9.180;2022-10-19T07:31:34;16.20;99.90
423;DHT22;198;48.752;9.180;2022-10-19T07:34:02;16.20;99.90
423;DHT22;198;48.752;9.180;2022-10-19T07:36:30;16.20;99.90
423;DHT22;198;48.752;9.180;2022-10-19T07:38:56;16.20;99.90
423;DHT22;198;48.752;9.180;2022-10-19T07:41:24;16.20;99.90
423;DHT22;198;48.752;9.180;2022-10-19T07:43:50;16.30;99.90
423;DHT22;198;48.752;9.180;2022-10-19T07:46:19;16.30;99.90
423;DHT22;198;48.752;9.180;2022-10-19T07:48:45;16.30;99.90
423;DHT22;198;48.752;9.180;2022-10-19T07:51:12;16.30;99.90
423;DHT22;198;48.752;9.180;2022-10-19T07:53:39;16.30;99.90
423;DHT22;198;48.752;9.180;2022-10-19T07:56:09;16.30;99.90
423;DHT22;198;48.752;9.180;2022-10-19T07:58:36;16.40;99.90
423;DHT22;198;48.752;9.180;2022-10-19T08:01:05;16.40;99.90
423;DHT22;198;48.752;9.180;2022-10-19T08:03:31;16.40;99.90
423;DHT22;198;48.752;9.180;2022-10-19T08:06:01;16.50;99.90
423;DHT22;198;48.752;9.180;2022-10-19T08:08:27;16.50;99.90
423;DHT22;198;48.752;9.180;2022-10-19T08:10:53;16.60;99.90
423;DHT22;198;48.752;9.180;2022-10-19T08:13:19;16.80;99.90
423;DHT22;198;48.752;9.180;2022-10-19T08:15:44;16.90;99.90
423;DHT22;198;48.752;9.180;2022-10-19T08:18:10;17.10;99.90
423;DHT22;198;48.752;9.180;2022-10-19T08:20:36;17.20;99.90
423;DHT22;198;48.752;9.180;2022-10-19T08:23:04;17.30;99.90
423;DHT22;198;48.752;9.180;2022-10-19T08:25:30;17.40;99.90
423;DHT22;198;48.752;9.180;2022-10-19T08:27:55;17.40;99.90
423;DHT22;198;48.752;9.180;2022-10-19T08:30:21;17.30;99.90
423;DHT22;198;48.752;9.180;2022-10-19T08:32:46;17.30;99.90
423;DHT22;198;48.752;9.180;2022-10-19T08:35:12;17.20;99.90
423;DHT22;198;48.752;9.180;2022-10-19T08:37:38;17.20;99.90
423;DHT22;198;48.752;9.180;2022-10-19T08:40:04;17.10;99.90
423;DHT22;198;48.752;9.180;2022-10-19T08:45:56;17.00;99.90
423;DHT22;198;48.752;9.180;2022-10-19T08:48:33;17.10;99.90
423;DHT22;198;48.752;9.180;2022-10-19T08:51:02;17.20;99.90
423;DHT22;198;48.752;9.180;2022-10-19T08:53:53;17.30;99.90
423;DHT22;198;48.752;9.180;2022-10-19T08:56:25;17.40;99.90
423;DHT22;198;48.752;9.180;2022-10-19T09:02:21;17.30;99.90
423;DHT22;198;48.752;9.180;2022-10-19T09:04:58;17.30;99.90
423;DHT22;198;48.752;9.180;2022-10-19T09:07:34;17.30;99.90
423;DHT22;198;48.752;9.180;2022-10-19T09:10:09;17.30;99.90
423;DHT22;198;48.752;9.180;2022-10-19T09:13:00;17.30;99.90
423;DHT22;198;48.752;9.180;2022-10-19T09:18:00;17.30;99.90
423;DHT22;198;48.752;9.180;2022-10-19T09:20:30;17.20;99.90
423;DHT22;198;48.752;9.180;2022-10-19T09:23:25;17.20;99.90
423;DHT22;198;48.752;9.180;2022-10-19T09:25:53;17.20;99.90
423;DHT22;198;48.752;9.180;2022-10-19T09:30:49;17.30;99.90
423;DHT22;198;48.752;9.180;2022-10-19T09:33:26;17.40;99.90
423;DHT22;198;48.752;9.180;2022-10-19T09:35:52;17.40;99.90
423;DHT22;198;48.752;9.180;2022-10-19T09:38:23;17.50;99.90
423;DHT22;198;48.752;9.180;2022-10-19T09:40:49;17.50;99.90
423;DHT22;198;48.752;9.180;2022-10-19T09:43:15;17.40;99.90
423;DHT22;198;48.752;9.180;2022-10-19T09:50:48;17.60;99.90
423;DHT22;198;48.752;9.180;2022-10-19T09:53:20;17.50;99.90
423;DHT22;198;48.752;9.180;2022-10-19T09:56:03;17.50;99.90
423;DHT22;198;48.752;9.180;2022-10-19T09:58:29;17.30;99.90
423;DHT22;198;48.752;9.180;2022-10-19T10:00:55;17.20;99.90
423;DHT22;198;48.752;9.180;2022-10-19T10:03:25;17.20;99.90
423;DHT22;198;48.752;9.180;2022-10-19T10:05:51;17.20;99.90
423;DHT22;198;48.752;9.180;2022-10-19T10:08:20;17.20;99.90
423;DHT22;198;48.752;9.180;2022-10-19T10:10:56;17.20;99.90
423;DHT22;198;48.752;9.180;2022-10-19T10:13:24;17.30;99.90
423;DHT22;198;48.752;9.180;2022-10-19T10:15:57;17.30;99.90
423;DHT22;198;48.752;9.180;2022-10-19T10:18:24;17.40;99.90
423;DHT22;198;48.752;9.180;2022-10-19T10:21:19;17.50;99.90
423;DHT22;198;48.752;9.180;2022-10-19T10:24:02;17.70;99.90
423;DHT22;198;48.752;9.180;2022-10-19T10:26:29;17.70;99.90
423;DHT22;198;48.752;9.180;2022-10-19T10:28:55;17.60;99.90
423;DHT22;198;48.752;9.180;2022-10-19T10:31:27;17.60;99.90
423;DHT22;198;48.752;9.180;2022-10-19T10:34:02;17.50;99.90
423;DHT22;198;48.752;9.180;2022-10-19T10:36:29;17.60;99.90
423;DHT22;198;48.752;9.180;2022-10-19T10:39:04;17.60;99.90
423;DHT22;198;48.752;9.180;2022-10-19T10:41:39;17.60;99.90
423;DHT22;198;48.752;9.180;2022-10-19T10:44:16;17.60;99.90
423;DHT22;198;48.752;9.180;2022-10-19T10:46:58;17.70;99.90
423;DHT22;198;48.752;9.180;2022-10-19T10:49:37;17.90;99.90
423;DHT22;198;48.752;9.180;2022-10-19T10:52:09;17.90;99.90
423;DHT22;198;48.752;9.180;2022-10-19T10:54:36;18.00;99.90
423;DHT22;198;48.752;9.180;2022-10-19T10:57:13;18.00;99.90
423;DHT22;198;48.752;9.180;2022-10-19T11:02:27;18.20;99.90
423;DHT22;198;48.752;9.180;2022-10-19T11:05:00;18.40;99.90
423;DHT22;198;48.752;9.180;2022-10-19T11:07:28;18.50;99.90
423;DHT22;198;48.752;9.180;2022-10-19T11:09:58;18.60;99.90
423;DHT22;198;48.752;9.180;2022-10-19T11:12:37;18.70;99.90
423;DHT22;198;48.752;9.180;2022-10-19T11:15:27;18.70;99.90
423;DHT22;198;48.752;9.180;2022-10-19T11:18:21;18.80;99.90
423;DHT22;198;48.752;9.180;2022-10-19T11:21:09;18.60;99.90
423;DHT22;198;48.752;9.180;2022-10-19T11:26:41;18.60;99.90
423;DHT22;198;48.752;9.180;2022-10-19T11:31:55;18.40;99.90
423;DHT22;198;48.752;9.180;2022-10-19T11:40:10;18.70;99.90
423;DHT22;198;48.752;9.180;2022-10-19T11:42:46;18.60;99.90
423;DHT22;198;48.752;9.180;2022-10-19T11:48:19;19.00;99.90
423;DHT22;198;48.752;9.180;2022-10-19T11:53:55;19.00;99.90
423;DHT22;198;48.752;9.180;2022-10-19T11:59:13;18.80;99.90
423;DHT22;198;48.752;9.180;2022-10-19T12:01:53;18.70;99.90
423;DHT22;198;48.752;9.180;2022-10-19T12:12:48;18.70;99.90
423;DHT22;198;48.752;9.180;2022-10-19T12:17:42;18.80;99.90
423;DHT22;198;48.752;9.180;2022-10-19T12:20:29;19.00;99.90
423;DHT22;198;48.752;9.180;2022-10-19T12:22:57;19.20;99.90
423;DHT22;198;48.752;9.180;2022-10-19T12:25:25;19.20;99.90
423;DHT22;198;48.752;9.180;2022-10-19T12:27:51;19.30;99.90
423;DHT22;198;48.752;9.180;2022-10-19T12:30:20;19.30;99.90
423;DHT22;198;48.752;9.180;2022-10-19T12:33:16;19.30;99.90
423;DHT22;198;48.752;9.180;2022-10-19T12:38:49;19.60;99.90
423;DHT22;198;48.752;9.180;2022-10-19T12:41:42;19.60;99.90
423;DHT22;198;48.752;9.180;2022-10-19T12:44:24;19.60;99.90
423;DHT22;198;48.752;9.180;2022-10-19T12:46:59;19.70;99.90
423;DHT22;198;48.752;9.180;2022-10-19T12:49:46;19.90;99.90
423;DHT22;198;48.752;9.180;2022-10-19T12:52:15;20.00;99.90
423;DHT22;198;48.752;9.180;2022-10-19T12:54:41;20.10;99.90
423;DHT22;198;48.752;9.180;2022-10-19T12:57:28;20.30;99.90
423;DHT22;198;48.752;9.180;2022-10-19T13:00:18;20.10;99.90
423;DHT22;198;48.752;9.180;2022-10-19T13:02:46;20.20;99.90
423;DHT22;198;48.752;9.180;2022-10-19T13:05:27;20.10;99.90
423;DHT22;198;48.752;9.180;2022-10-19T13:07:53;20.10;99.90
423;DHT22;198;48.752;9.180;2022-10-19T13:10:24;20.10;99.90
423;DHT22;198;48.752;9.180;2022-10-19T13:12:51;20.10;99.90
423;DHT22;198;48.752;9.180;2022-10-19T13:18:59;20.00;99.90
423;DHT22;198;48.752;9.180;2022-10-19T13:21:01;20.00;99.90
423;DHT22;198;48.752;9.180;2022-10-19T13:26:32;20.00;99.90
423;DHT22;198;48.752;9.180;2022-10-19T13:28:58;19.80;99.90
423;DHT22;198;48.752;9.180;2022-10-19T13:31:27;19.60;99.90
423;DHT22;198;48.752;9.180;2022-10-19T13:33:53;19.30;99.90
423;DHT22;198;48.752;9.180;2022-10-19T13:36:19;19.20;99.90
423;DHT22;198;48.752;9.180;2022-10-19T13:41:43;19.00;99.90
423;DHT22;198;48.752;9.180;2022-10-19T13:46:47;18.80;99.90
423;DHT22;198;48.752;9.180;2022-10-19T13:49:46;18.90;99.90
423;DHT22;198;48.752;9.180;2022-10-19T13:52:43;19.00;99.90
423;DHT22;198;48.752;9.180;2022-10-19T14:03:57;18.80;99.90
423;DHT22;198;48.752;9.180;2022-10-19T14:06:38;18.90;99.90
423;DHT22;198;48.752;9.180;2022-10-19T14:11:39;18.90;99.90
423;DHT22;198;48.752;9.180;2022-10-19T14:16:33;19.00;99.90
423;DHT22;198;48.752;9.180;2022-10-19T14:18:59;18.90;99.90
423;DHT22;198;48.752;9.180;2022-10-19T14:21:33;18.80;99.90
423;DHT22;198;48.752;9.180;2022-10-19T14:23:59;18.80;99.90
423;DHT22;198;48.752;9.180;2022-10-19T14:26:29;18.80;99.90
423;DHT22;198;48.752;9.180;2022-10-19T14:28:57;18.80;99.90
423;DHT22;198;48.752;9.180;2022-10-19T14:31:27;18.70;99.90
423;DHT22;198;48.752;9.180;2022-10-19T14:33:58;18.60;99.90
423;DHT22;198;48.752;9.180;2022-10-19T14:36:29;18.60;99.90
423;DHT22;198;48.752;9.180;2022-10-19T14:38:56;18.60;99.90
423;DHT22;198;48.752;9.180;2022-10-19T14:43:51;18.70;99.90
423;DHT22;198;48.752;9.180;2022-10-19T14:46:17;18.60;99.90
423;DHT22;198;48.752;9.180;2022-10-19T14:48:44;18.50;99.90
423;DHT22;198;48.752;9.180;2022-10-19T14:54:51;18.30;99.90
423;DHT22;198;48.752;9.180;2022-10-19T14:56:55;18.40;99.90
423;DHT22;198;48.752;9.180;2022-10-19T14:59:23;18.40;99.90
423;DHT22;198;48.752;9.180;2022-10-19T15:01:53;18.30;99.90
423;DHT22;198;48.752;9.180;2022-10-19T15:04:23;18.40;99.90
423;DHT22;198;48.752;9.180;2022-10-19T15:06:50;18.40;99.90
423;DHT22;198;48.752;9.180;2022-10-19T15:11:48;18.70;99.90
423;DHT22;198;48.752;9.180;2022-10-19T15:14:20;18.80;99.90
423;DHT22;198;48.752;9.180;2022-10-19T15:16:58;18.90;99.90
423;DHT22;198;48.752;9.180;2022-10-19T15:19:39;19.00;99.90
423;DHT22;198;48.752;9.180;2022-10-19T15:22:11;19.10;99.90
423;DHT22;198;48.752;9.180;2022-10-19T15:24:38;19.20;99.90
423;DHT22;198;48.752;9.180;2022-10-19T15:27:32;19.30;99.90
423;DHT22;198;48.752;9.180;2022-10-19T15:30:21;19.40;99.90
423;DHT22;198;48.752;9.180;2022-10-19T15:35:29;19.20;99.90
423;DHT22;198;48.752;9.180;2022-10-19T15:38:15;19.00;99.90
423;DHT22;198;48.752;9.180;2022-10-19T15:40:43;18.80;99.90
423;DHT22;198;48.752;9.180;2022-10-19T15:43:36;18.60;99.90
423;DHT22;198;48.752;9.180;2022-10-19T15:48:56;18.20;99.90
423;DHT22;198;48.752;9.180;2022-10-19T15:53:52;17.90;99.90
423;DHT22;198;48.752;9.180;2022-10-19T15:56:19;17.70;99.90
423;DHT22;198;48.752;9.180;2022-10-19T15:58:48;17.50;99.90
423;DHT22;198;48.752;9.180;2022-10-19T16:01:16;17.40;99.90
423;DHT22;198;48.752;9.180;2022-10-19T16:03:42;17.20;99.90
423;DHT22;198;48.752;9.180;2022-10-19T16:06:07;17.10;99.90
423;DHT22;198;48.752;9.180;2022-10-19T16:08:33;17.00;99.90
423;DHT22;198;48.752;9.180;2022-10-19T16:10:59;16.90;99.90
423;DHT22;198;48.752;9.180;2022-10-19T16:13:24;16.80;99.90
423;DHT22;198;48.752;9.180;2022-10-19T16:15:50;16.70;99.90
423;DHT22;198;48.752;9.180;2022-10-19T16:18:16;16.60;99.90
423;DHT22;198;48.752;9.180;2022-10-19T16:20:41;16.40;99.90
423;DHT22;198;48.752;9.180;2022-10-19T16:23:08;16.30;99.90
423;DHT22;198;48.752;9.180;2022-10-19T16:25:33;16.20;99.90
423;DHT22;198;48.752;9.180;2022-10-19T16:27:59;16.10;99.90
423;DHT22;198;48.752;9.180;2022-10-19T16:30:24;16.00;99.90
423;DHT22;198;48.752;9.180;2022-10-19T16:32:50;15.90;99.90
423;DHT22;198;48.752;9.180;2022-10-19T16:35:15;15.80;99.90
423;DHT22;198;48.752;9.180;2022-10-19T16:37:41;15.80;99.90
423;DHT22;198;48.752;9.180;2022-10-19T16:40:07;15.70;99.90
423;DHT22;198;48.752;9.180;2022-10-19T16:42:33;15.60;99.90
423;DHT22;198;48.752;9.180;2022-10-19T16:44:59;15.50;99.90
423;DHT22;198;48.752;9.180;2022-10-19T16:47:25;15.50;99.90
423;DHT22;198;48.752;9.180;2022-10-19T16:49:58;15.40;99.90
423;DHT22;198;48.752;9.180;2022-10-19T16:52:27;15.40;99.90
423;DHT22;198;48.752;9.180;2022-10-19T16:54:53;15.30;99.90
423;DHT22;198;48.752;9.180;2022-10-19T16:57:19;15.30;99.90
423;DHT22;198;48.752;9.180;2022-10-19T16:59:44;15.20;99.90
423;DHT22;198;48.752;9.180;2022-10-19T17:02:10;15.20;99.90
423;DHT22;198;48.752;9.180;2022-10-19T17:04:36;15.20;99.90
423;DHT22;198;48.752;9.180;2022-10-19T17:07:01;15.10;99.90
423;DHT22;198;48.752;9.180;2022-10-19T17:09:27;15.10;99.90
423;DHT22;198;48.752;9.180;2022-10-19T17:11:52;15.10;99.90
423;DHT22;198;48.752;9.180;2022-10-19T17:14:18;15.00;99.90
423;DHT22;198;48.752;9.180;2022-10-19T17:16:43;15.00;99.90
423;DHT22;198;48.752;9.180;2022-10-19T17:19:10;15.00;99.90
423;DHT22;198;48.752;9.180;2022-10-19T17:21:37;14.90;99.90
423;DHT22;198;48.752;9.180;2022-10-19T17:24:04;14.90;99.90
423;DHT22;198;48.752;9.180;2022-10-19T17:26:33;14.90;99.90
423;DHT22;198;48.752;9.180;2022-10-19T17:28:59;14.90;99.90
423;DHT22;198;48.752;9.180;2022-10-19T17:31:26;14.90;99.90
423;DHT22;198;48.752;9.180;2022-10-19T17:33:52;14.80;99.90
423;DHT22;198;48.752;9.180;2022-10-19T17:36:20;14.80;99.90
423;DHT22;198;48.752;9.180;2022-10-19T17:38:46;14.80;99.90
423;DHT22;198;48.752;9.180;2022-10-19T17:41:17;14.70;99.90
423;DHT22;198;48.752;9.180;2022-10-19T17:43:45;14.70;99.90
423;DHT22;198;48.752;9.180;2022-10-19T17:46:12;14.70;99.90
423;DHT22;198;48.752;9.180;2022-10-19T17:48:39;14.70;99.90
423;DHT22;198;48.752;9.180;2022-10-19T17:51:07;14.60;99.90
423;DHT22;198;48.752;9.180;2022-10-19T17:53:33;14.60;99.90
423;DHT22;198;48.752;9.180;2022-10-19T17:56:03;14.60;99.90
423;DHT22;198;48.752;9.180;2022-10-19T17:58:30;14.60;99.90
423;DHT22;198;48.752;9.180;2022-10-19T18:00:57;14.60;99.90
423;DHT22;198;48.752;9.180;2022-10-19T18:03:25;14.50;99.90
423;DHT22;198;48.752;9.180;2022-10-19T18:06:04;14.60;99.90
423;DHT22;198;48.752;9.180;2022-10-19T18:08:32;14.70;99.90
423;DHT22;198;48.752;9.180;2022-10-19T18:11:00;14.80;99.90
423;DHT22;198;48.752;9.180;2022-10-19T18:13:26;14.80;99.90
423;DHT22;198;48.752;9.180;2022-10-19T18:15:52;14.90;99.90
423;DHT22;198;48.752;9.180;2022-10-19T18:18:22;14.90;99.90
423;DHT22;198;48.752;9.180;2022-10-19T18:20:49;15.00;99.90
423;DHT22;198;48.752;9.180;2022-10-19T18:23:15;15.00;99.90
423;DHT22;198;48.752;9.180;2022-10-19T18:25:40;15.00;99.90
423;DHT22;198;48.752;9.180;2022-10-19T18:28:06;15.10;99.90
423;DHT22;198;48.752;9.180;2022-10-19T18:30:35;15.20;99.90
423;DHT22;198;48.752;9.180;2022-10-19T18:33:01;15.20;99.90
423;DHT22;198;48.752;9.180;2022-10-19T18:35:27;15.20;99.90
423;DHT22;198;48.752;9.180;2022-10-19T18:37:52;15.20;99.90
423;DHT22;198;48.752;9.180;2022-10-19T18:40:18;15.30;99.90